sensor_id;sensor_type;location;lat;lon;timestamp;P1;durP1;ratioP1;P2;durP2;ratioP2
2658;SDS011;1339;53.304;10.406;2022-10-17T00:00:24;4.63;;;3.97;;
2658;SDS011;1339;53.304;10.406;2022-10-17T00:02:53;4.28;;;3.85;;
2658;SDS011;1339;53.304;10.406;2022-10-17T00:05:20;4.10;;;3.75;;
2658;SDS011;1339;53.304;10.406;2022-10-17T00:07:47;8.80;;;3.90;;
2658;SDS011;1339;53.304;10.406;2022-10-17T00:10:14;4.55;;;4.13;;
2658;SDS011;1339;53.304;10.406;2022-10-17T00:12:43;4.25;;;3.90;;
2658;SDS011;1339;53.304;10.406;2022-10-17T00:15:13;4.40;;;4.10;;
2658;SDS011;1339;53.304;10.406;2022-10-17T00:17:40;5.18;;;4.68;;
2658;SDS011;1339;53.304;10.406;2022-10-17T00:20:08;5.93;;;4.30;;
2658;SDS011;1339;53.304;10.406;2022-10-17T00:22:35;6.70;;;4.65;;
2658;SDS011;1339;53.304;10.406;2022-10-17T00:25:02;6.45;;;4.05;;
2658;SDS011;1339;53.304;10.406;2022-10-17T00:27:29;4.22;;;3.92;;
2658;SDS011;1339;53.304;10.406;2022-10-17T00:29:58;4.20;;;3.90;;
2658;SDS011;1339;53.304;10.406;2022-10-17T00:32:25;5.78;;;4.47;;
2658;SDS011;1339;53.304;10.406;2022-10-17T00:34:52;5.15;;;3.50;;
2658;SDS011;1339;53.304;10.406;2022-10-17T00:37:19;4.35;;;3.53;;
2658;SDS011;1339;53.304;10.406;2022-10-17T00:39:46;5.15;;;4.03;;
2658;SDS011;1339;53.304;10.406;2022-10-17T00:42:13;3.72;;;3.53;;
2658;SDS011;1339;53.304;10.406;2022-10-17T00:44:58;4.95;;;4.53;;
2658;SDS011;1339;53.304;10.406;2022-10-17T00:47:26;4.10;;;3.70;;
2658;SDS011;1339;53.304;10.406;2022-10-17T00:49:53;4.07;;;3.77;;
2658;SDS011;1339;53.304;10.406;2022-10-17T00:52:21;7.00;;;3.95;;
2658;SDS011;1339;53.304;10.406;2022-10-17T00:54:50;4.15;;;3.85;;
2658;SDS011;1339;53.304;10.406;2022-10-17T00:57:20;5.63;;;4.32;;
2658;SDS011;1339;53.304;10.406;2022-10-17T00:59:48;11.60;;;3.97;;
2658;SDS011;1339;53.304;10.406;2022-10-17T01:02:18;4.63;;;4.33;;
2658;SDS011;1339;53.304;10.406;2022-10-17T01:04:46;4.43;;;4.03;;
2658;SDS011;1339;53.304;10.406;2022-10-17T01:07:14;4.88;;;4.47;;
2658;SDS011;1339;53.304;10.406;2022-10-17T01:09:42;5.05;;;4.47;;
2658;SDS011;1339;53.304;10.406;2022-10-17T01:12:11;9.35;;;5.88;;
2658;SDS011;1339;53.304;10.406;2022-10-17T01:14:42;5.78;;;4.65;;
2658;SDS011;1339;53.304;10.406;2022-10-17T01:17:14;4.88;;;4.43;;
2658;SDS011;1339;53.304;10.406;2022-10-17T01:19:49;5.82;;;5.30;;
2658;SDS011;1339;53.304;10.406;2022-10-17T01:22:22;5.65;;;5.15;;
2658;SDS011;1339;53.304;10.406;2022-10-17T01:24:57;6.20;;;5.63;;
2658;SDS011;1339;53.304;10.406;2022-10-17T01:27:37;6.05;;;5.05;;
2658;SDS011;1339;53.304;10.406;2022-10-17T01:30:09;5.35;;;4.95;;
2658;SDS011;1339;53.304;10.406;2022-10-17T01:32:42;5.63;;;5.13;;
2658;SDS011;1339;53.304;10.406;2022-10-17T01:35:12;6.13;;;5.55;;
2658;SDS011;1339;53.304;10.406;2022-10-17T01:37:43;6.32;;;5.72;;
2658;SDS011;1339;53.304;10.406;2022-10-17T01:40:13;8.52;;;5.97;;
2658;SDS011;1339;53.304;10.406;2022-10-17T01:42:43;5.97;;;5.47;;
2658;SDS011;1339;53.304;10.406;2022-10-17T01:45:13;7.25;;;5.65;;
2658;SDS011;1339;53.304;10.406;2022-10-17T01:47:43;7.45;;;4.97;;
2658;SDS011;1339;53.304;10.406;2022-10-17T01:50:14;5.80;;;5.40;;
2658;SDS011;1339;53.304;10.406;2022-10-17T01:52:44;7.97;;;5.00;;
2658;SDS011;1339;53.304;10.406;2022-10-17T01:55:13;5.03;;;4.63;;
2658;SDS011;1339;53.304;10.406;2022-10-17T01:57:41;5.20;;;4.80;;
2658;SDS011;1339;53.304;10.406;2022-10-17T02:00:10;8.33;;;5.60;;
2658;SDS011;1339;53.304;10.406;2022-10-17T02:02:40;5.83;;;4.30;;
2658;SDS011;1339;53.304;10.406;2022-10-17T02:05:09;4.60;;;4.17;;
2658;SDS011;1339;53.304;10.406;2022-10-17T02:07:36;5.67;;;5.13;;
2658;SDS011;1339;53.304;10.406;2022-10-17T02:10:04;5.23;;;4.83;;
2658;SDS011;1339;53.304;10.406;2022-10-17T02:12:34;5.10;;;4.63;;
2658;SDS011;1339;53.304;10.406;2022-10-17T02:15:08;4.20;;;3.90;;
2658;SDS011;1339;53.304;10.406;2022-10-17T02:17:39;9.90;;;5.07;;
2658;SDS011;1339;53.304;10.406;2022-10-17T02:20:13;5.40;;;5.00;;
2658;SDS011;1339;53.304;10.406;2022-10-17T02:22:42;8.13;;;6.03;;
2658;SDS011;1339;53.304;10.406;2022-10-17T02:25:12;5.97;;;5.57;;
2658;SDS011;1339;53.304;10.406;2022-10-17T02:27:41;4.80;;;4.50;;
2658;SDS011;1339;53.304;10.406;2022-10-17T02:30:10;6.28;;;5.68;;
2658;SDS011;1339;53.304;10.406;2022-10-17T02:32:40;7.27;;;6.50;;
2658;SDS011;1339;53.304;10.406;2022-10-17T02:35:11;4.90;;;4.60;;
2658;SDS011;1339;53.304;10.406;2022-10-17T02:37:39;6.45;;;5.15;;
2658;SDS011;1339;53.304;10.406;2022-10-17T02:40:08;6.83;;;5.67;;
2658;SDS011;1339;53.304;10.406;2022-10-17T02:42:36;4.80;;;4.50;;
2658;SDS011;1339;53.304;10.406;2022-10-17T02:45:04;5.40;;;4.90;;
2658;SDS011;1339;53.304;10.406;2022-10-17T02:47:34;5.80;;;5.30;;
2658;SDS011;1339;53.304;10.406;2022-10-17T02:50:02;7.23;;;6.43;;
2658;SDS011;1339;53.304;10.406;2022-10-17T02:52:32;6.00;;;5.40;;
2658;SDS011;1339;53.304;10.406;2022-10-17T02:55:02;5.97;;;5.57;;
2658;SDS011;1339;53.304;10.406;2022-10-17T02:57:33;6.00;;;5.60;;
2658;SDS011;1339;53.304;10.406;2022-10-17T03:00:02;6.70;;;6.20;;
2658;SDS011;1339;53.304;10.406;2022-10-17T03:02:36;6.63;;;6.22;;
2658;SDS011;1339;53.304;10.406;2022-10-17T03:05:04;7.30;;;6.53;;
2658;SDS011;1339;53.304;10.406;2022-10-17T03:07:33;8.40;;;6.57;;
2658;SDS011;1339;53.304;10.406;2022-10-17T03:10:00;6.95;;;6.22;;
2658;SDS011;1339;53.304;10.406;2022-10-17T03:12:27;6.80;;;6.40;;
2658;SDS011;1339;53.304;10.406;2022-10-17T03:14:54;6.40;;;5.90;;
2658;SDS011;1339;53.304;10.406;2022-10-17T03:17:21;7.22;;;6.53;;
2658;SDS011;1339;53.304;10.406;2022-10-17T03:19:48;6.95;;;6.45;;
2658;SDS011;1339;53.304;10.406;2022-10-17T03:22:15;7.03;;;6.33;;
2658;SDS011;1339;53.304;10.406;2022-10-17T03:24:44;7.33;;;6.77;;
2658;SDS011;1339;53.304;10.406;2022-10-17T03:27:11;7.63;;;6.97;;
2658;SDS011;1339;53.304;10.406;2022-10-17T03:29:38;6.90;;;6.40;;
2658;SDS011;1339;53.304;10.406;2022-10-17T03:32:05;9.55;;;7.50;;
2658;SDS011;1339;53.304;10.406;2022-10-17T03:34:32;7.35;;;6.55;;
2658;SDS011;1339;53.304;10.406;2022-10-17T03:36:59;8.45;;;7.55;;
2658;SDS011;1339;53.304;10.406;2022-10-17T03:39:26;7.45;;;6.75;;
2658;SDS011;1339;53.304;10.406;2022-10-17T03:41:55;7.22;;;6.70;;
2658;SDS011;1339;53.304;10.406;2022-10-17T03:44:22;7.05;;;6.50;;
2658;SDS011;1339;53.304;10.406;2022-10-17T03:46:49;8.20;;;7.50;;
2658;SDS011;1339;53.304;10.406;2022-10-17T03:49:16;6.65;;;6.22;;
2658;SDS011;1339;53.304;10.406;2022-10-17T03:51:43;6.57;;;5.97;;
2658;SDS011;1339;53.304;10.406;2022-10-17T03:54:11;8.02;;;7.32;;
2658;SDS011;1339;53.304;10.406;2022-10-17T03:56:38;7.50;;;5.93;;
2658;SDS011;1339;53.304;10.406;2022-10-17T03:59:06;6.75;;;6.28;;
2658;SDS011;1339;53.304;10.406;2022-10-17T04:01:33;6.80;;;6.20;;
2658;SDS011;1339;53.304;10.406;2022-10-17T04:04:00;7.65;;;6.95;;
2658;SDS011;1339;53.304;10.406;2022-10-17T04:06:28;6.63;;;6.20;;
2658;SDS011;1339;53.304;10.406;2022-10-17T04:08:55;6.97;;;6.38;;
2658;SDS011;1339;53.304;10.406;2022-10-17T04:11:22;6.40;;;5.90;;
2658;SDS011;1339;53.304;10.406;2022-10-17T04:13:51;6.57;;;6.03;;
2658;SDS011;1339;53.304;10.406;2022-10-17T04:16:20;6.80;;;6.30;;
2658;SDS011;1339;53.304;10.406;2022-10-17T04:18:51;7.30;;;6.70;;
2658;SDS011;1339;53.304;10.406;2022-10-17T04:21:18;6.85;;;6.30;;
2658;SDS011;1339;53.304;10.406;2022-10-17T04:23:45;6.50;;;5.90;;
2658;SDS011;1339;53.304;10.406;2022-10-17T04:26:12;7.70;;;7.10;;
2658;SDS011;1339;53.304;10.406;2022-10-17T04:28:40;6.70;;;6.30;;
2658;SDS011;1339;53.304;10.406;2022-10-17T04:31:08;6.85;;;6.45;;
2658;SDS011;1339;53.304;10.406;2022-10-17T04:33:37;8.43;;;7.80;;
2658;SDS011;1339;53.304;10.406;2022-10-17T04:36:05;10.00;;;6.50;;
2658;SDS011;1339;53.304;10.406;2022-10-17T04:38:32;7.20;;;6.70;;
2658;SDS011;1339;53.304;10.406;2022-10-17T04:41:00;6.53;;;6.00;;
2658;SDS011;1339;53.304;10.406;2022-10-17T04:43:28;7.00;;;6.30;;
2658;SDS011;1339;53.304;10.406;2022-10-17T04:45:56;6.07;;;5.68;;
2658;SDS011;1339;53.304;10.406;2022-10-17T04:48:23;8.30;;;6.43;;
2658;SDS011;1339;53.304;10.406;2022-10-17T04:50:54;6.78;;;6.07;;
2658;SDS011;1339;53.304;10.406;2022-10-17T04:53:22;6.32;;;5.80;;
2658;SDS011;1339;53.304;10.406;2022-10-17T04:55:49;6.35;;;5.85;;
2658;SDS011;1339;53.304;10.406;2022-10-17T04:58:16;6.40;;;6.00;;
2658;SDS011;1339;53.304;10.406;2022-10-17T05:00:44;6.20;;;5.70;;
2658;SDS011;1339;53.304;10.406;2022-10-17T05:03:11;7.13;;;6.53;;
2658;SDS011;1339;53.304;10.406;2022-10-17T05:05:38;6.30;;;5.80;;
2658;SDS011;1339;53.304;10.406;2022-10-17T05:08:07;6.93;;;6.32;;
2658;SDS011;1339;53.304;10.406;2022-10-17T05:10:35;6.07;;;5.63;;
2658;SDS011;1339;53.304;10.406;2022-10-17T05:13:02;8.40;;;6.25;;
2658;SDS011;1339;53.304;10.406;2022-10-17T05:15:30;6.70;;;6.15;;
2658;SDS011;1339;53.304;10.406;2022-10-17T05:17:57;9.93;;;5.93;;
2658;SDS011;1339;53.304;10.406;2022-10-17T05:20:24;6.15;;;5.65;;
2658;SDS011;1339;53.304;10.406;2022-10-17T05:22:52;6.00;;;5.25;;
2658;SDS011;1339;53.304;10.406;2022-10-17T05:25:20;7.03;;;5.97;;
2658;SDS011;1339;53.304;10.406;2022-10-17T05:27:48;7.70;;;4.80;;
2658;SDS011;1339;53.304;10.406;2022-10-17T05:30:15;6.57;;;6.15;;
2658;SDS011;1339;53.304;10.406;2022-10-17T05:32:42;8.48;;;6.18;;
2658;SDS011;1339;53.304;10.406;2022-10-17T05:35:09;7.13;;;5.22;;
2658;SDS011;1339;53.304;10.406;2022-10-17T05:37:36;6.30;;;5.55;;
2658;SDS011;1339;53.304;10.406;2022-10-17T05:40:05;5.95;;;5.45;;
2658;SDS011;1339;53.304;10.406;2022-10-17T05:42:33;5.78;;;5.28;;
2658;SDS011;1339;53.304;10.406;2022-10-17T05:45:01;6.38;;;5.88;;
2658;SDS011;1339;53.304;10.406;2022-10-17T05:47:28;8.63;;;5.45;;
2658;SDS011;1339;53.304;10.406;2022-10-17T05:49:55;5.80;;;5.30;;
2658;SDS011;1339;53.304;10.406;2022-10-17T05:52:22;9.95;;;4.50;;
2658;SDS011;1339;53.304;10.406;2022-10-17T05:54:49;10.82;;;5.03;;
2658;SDS011;1339;53.304;10.406;2022-10-17T05:57:17;6.72;;;5.35;;
2658;SDS011;1339;53.304;10.406;2022-10-17T05:59:45;6.03;;;5.57;;
2658;SDS011;1339;53.304;10.406;2022-10-17T06:02:12;6.50;;;4.97;;
2658;SDS011;1339;53.304;10.406;2022-10-17T06:04:39;6.30;;;5.80;;
2658;SDS011;1339;53.304;10.406;2022-10-17T06:07:09;5.55;;;5.05;;
2658;SDS011;1339;53.304;10.406;2022-10-17T06:09:37;7.68;;;4.60;;
2658;SDS011;1339;53.304;10.406;2022-10-17T06:12:04;5.75;;;5.15;;
2658;SDS011;1339;53.304;10.406;2022-10-17T06:14:31;6.47;;;5.97;;
2658;SDS011;1339;53.304;10.406;2022-10-17T06:17:00;5.18;;;4.68;;
2658;SDS011;1339;53.304;10.406;2022-10-17T06:19:27;6.13;;;5.05;;
2658;SDS011;1339;53.304;10.406;2022-10-17T06:21:55;6.32;;;5.43;;
2658;SDS011;1339;53.304;10.406;2022-10-17T06:24:22;5.30;;;4.80;;
2658;SDS011;1339;53.304;10.406;2022-10-17T06:26:49;5.00;;;4.60;;
2658;SDS011;1339;53.304;10.406;2022-10-17T06:29:16;9.90;;;5.97;;
2658;SDS011;1339;53.304;10.406;2022-10-17T06:31:43;5.82;;;4.95;;
2658;SDS011;1339;53.304;10.406;2022-10-17T06:34:12;6.75;;;6.35;;
2658;SDS011;1339;53.304;10.406;2022-10-17T06:36:40;5.85;;;4.43;;
2658;SDS011;1339;53.304;10.406;2022-10-17T06:39:07;6.60;;;4.68;;
2658;SDS011;1339;53.304;10.406;2022-10-17T06:41:34;7.15;;;5.32;;
2658;SDS011;1339;53.304;10.406;2022-10-17T06:44:02;4.90;;;4.55;;
2658;SDS011;1339;53.304;10.406;2022-10-17T06:46:36;5.50;;;5.05;;
2658;SDS011;1339;53.304;10.406;2022-10-17T06:49:03;4.65;;;4.35;;
2658;SDS011;1339;53.304;10.406;2022-10-17T06:51:33;4.53;;;4.22;;
2658;SDS011;1339;53.304;10.406;2022-10-17T06:54:00;8.20;;;5.45;;
2658;SDS011;1339;53.304;10.406;2022-10-17T06:56:28;9.90;;;5.10;;
2658;SDS011;1339;53.304;10.406;2022-10-17T06:58:55;6.45;;;4.38;;
2658;SDS011;1339;53.304;10.406;2022-10-17T07:01:22;6.10;;;4.40;;
2658;SDS011;1339;53.304;10.406;2022-10-17T07:03:51;5.57;;;4.35;;
2658;SDS011;1339;53.304;10.406;2022-10-17T07:06:18;5.65;;;4.50;;
2658;SDS011;1339;53.304;10.406;2022-10-17T07:08:50;5.32;;;4.80;;
2658;SDS011;1339;53.304;10.406;2022-10-17T07:11:20;5.65;;;5.05;;
2658;SDS011;1339;53.304;10.406;2022-10-17T07:13:49;6.18;;;5.45;;
2658;SDS011;1339;53.304;10.406;2022-10-17T07:16:17;5.30;;;4.85;;
2658;SDS011;1339;53.304;10.406;2022-10-17T07:18:47;7.18;;;6.47;;
2658;SDS011;1339;53.304;10.406;2022-10-17T07:21:14;8.75;;;6.28;;
2658;SDS011;1339;53.304;10.406;2022-10-17T07:23:42;7.13;;;6.53;;
2658;SDS011;1339;53.304;10.406;2022-10-17T07:26:12;6.00;;;5.50;;
2658;SDS011;1339;53.304;10.406;2022-10-17T07:28:40;7.70;;;5.47;;
2658;SDS011;1339;53.304;10.406;2022-10-17T07:31:09;8.10;;;6.80;;
2658;SDS011;1339;53.304;10.406;2022-10-17T07:33:37;6.30;;;5.67;;
2658;SDS011;1339;53.304;10.406;2022-10-17T07:36:04;6.53;;;5.90;;
2658;SDS011;1339;53.304;10.406;2022-10-17T07:38:31;7.93;;;6.07;;
2658;SDS011;1339;53.304;10.406;2022-10-17T07:40:59;6.40;;;5.90;;
2658;SDS011;1339;53.304;10.406;2022-10-17T07:43:28;5.00;;;4.60;;
2658;SDS011;1339;53.304;10.406;2022-10-17T07:45:56;5.73;;;5.23;;
2658;SDS011;1339;53.304;10.406;2022-10-17T07:48:23;5.23;;;4.77;;
2658;SDS011;1339;53.304;10.406;2022-10-17T07:50:50;5.23;;;4.73;;
2658;SDS011;1339;53.304;10.406;2022-10-17T07:53:18;4.53;;;4.23;;
2658;SDS011;1339;53.304;10.406;2022-10-17T07:55:45;3.93;;;3.63;;
2658;SDS011;1339;53.304;10.406;2022-10-17T07:58:13;5.70;;;4.77;;
2658;SDS011;1339;53.304;10.406;2022-10-17T08:00:42;7.10;;;4.87;;
2658;SDS011;1339;53.304;10.406;2022-10-17T08:03:12;5.20;;;4.70;;
2658;SDS011;1339;53.304;10.406;2022-10-17T08:05:39;5.70;;;5.20;;
2658;SDS011;1339;53.304;10.406;2022-10-17T08:08:06;4.70;;;4.30;;
2658;SDS011;1339;53.304;10.406;2022-10-17T08:10:33;4.60;;;4.10;;
2658;SDS011;1339;53.304;10.406;2022-10-17T08:13:00;4.60;;;4.30;;
2658;SDS011;1339;53.304;10.406;2022-10-17T08:15:27;3.80;;;3.40;;
2658;SDS011;1339;53.304;10.406;2022-10-17T08:17:56;4.60;;;4.20;;
2658;SDS011;1339;53.304;10.406;2022-10-17T08:20:24;4.03;;;3.70;;
2658;SDS011;1339;53.304;10.406;2022-10-17T08:22:51;4.03;;;3.73;;
2658;SDS011;1339;53.304;10.406;2022-10-17T08:25:18;4.20;;;3.80;;
2658;SDS011;1339;53.304;10.406;2022-10-17T08:27:46;4.30;;;3.80;;
2658;SDS011;1339;53.304;10.406;2022-10-17T08:30:13;3.63;;;3.27;;
2658;SDS011;1339;53.304;10.406;2022-10-17T08:32:41;3.13;;;2.90;;
2658;SDS011;1339;53.304;10.406;2022-10-17T08:35:09;3.90;;;3.60;;
2658;SDS011;1339;53.304;10.406;2022-10-17T08:37:38;3.37;;;3.07;;
2658;SDS011;1339;53.304;10.406;2022-10-17T08:40:06;3.77;;;3.13;;
2658;SDS011;1339;53.304;10.406;2022-10-17T08:42:45;3.47;;;3.20;;
2658;SDS011;1339;53.304;10.406;2022-10-17T08:45:18;2.87;;;2.67;;
2658;SDS011;1339;53.304;10.406;2022-10-17T08:47:47;3.40;;;3.13;;
2658;SDS011;1339;53.304;10.406;2022-10-17T08:50:19;3.13;;;2.90;;
2658;SDS011;1339;53.304;10.406;2022-10-17T08:52:49;2.60;;;2.40;;
2658;SDS011;1339;53.304;10.406;2022-10-17T08:55:19;3.53;;;3.30;;
2658;SDS011;1339;53.304;10.406;2022-10-17T08:57:48;4.80;;;3.37;;
2658;SDS011;1339;53.304;10.406;2022-10-17T09:00:16;3.40;;;3.10;;
2658;SDS011;1339;53.304;10.406;2022-10-17T09:02:49;5.40;;;4.90;;
2658;SDS011;1339;53.304;10.406;2022-10-17T09:05:29;8.80;;;7.90;;
2658;SDS011;1339;53.304;10.406;2022-10-17T09:08:01;5.30;;;4.47;;
2658;SDS011;1339;53.304;10.406;2022-10-17T09:10:33;6.20;;;5.60;;
2658;SDS011;1339;53.304;10.406;2022-10-17T09:13:05;7.83;;;7.17;;
2658;SDS011;1339;53.304;10.406;2022-10-17T09:15:39;3.80;;;3.47;;
2658;SDS011;1339;53.304;10.406;2022-10-17T09:18:10;3.10;;;2.90;;
2658;SDS011;1339;53.304;10.406;2022-10-17T09:20:40;3.90;;;3.60;;
2658;SDS011;1339;53.304;10.406;2022-10-17T09:23:10;5.87;;;3.23;;
2658;SDS011;1339;53.304;10.406;2022-10-17T09:25:40;3.40;;;3.20;;
2658;SDS011;1339;53.304;10.406;2022-10-17T09:28:11;2.97;;;2.70;;
2658;SDS011;1339;53.304;10.406;2022-10-17T09:30:39;2.97;;;2.77;;
2658;SDS011;1339;53.304;10.406;2022-10-17T09:33:09;5.57;;;3.07;;
2658;SDS011;1339;53.304;10.406;2022-10-17T09:35:37;3.43;;;3.13;;
2658;SDS011;1339;53.304;10.406;2022-10-17T09:38:07;4.60;;;3.17;;
2658;SDS011;1339;53.304;10.406;2022-10-17T09:40:35;5.00;;;2.73;;
2658;SDS011;1339;53.304;10.406;2022-10-17T09:43:04;3.20;;;3.00;;
2658;SDS011;1339;53.304;10.406;2022-10-17T09:45:31;4.93;;;3.93;;
2658;SDS011;1339;53.304;10.406;2022-10-17T09:48:04;3.77;;;3.20;;
2658;SDS011;1339;53.304;10.406;2022-10-17T09:50:34;3.10;;;2.87;;
2658;SDS011;1339;53.304;10.406;2022-10-17T09:53:05;3.87;;;2.90;;
2658;SDS011;1339;53.304;10.406;2022-10-17T09:55:38;4.27;;;2.93;;
2658;SDS011;1339;53.304;10.406;2022-10-17T09:58:07;3.17;;;2.90;;
2658;SDS011;1339;53.304;10.406;2022-10-17T10:00:36;3.93;;;3.60;;
2658;SDS011;1339;53.304;10.406;2022-10-17T10:03:16;3.53;;;3.23;;
2658;SDS011;1339;53.304;10.406;2022-10-17T10:05:57;3.60;;;3.30;;
2658;SDS011;1339;53.304;10.406;2022-10-17T10:08:25;4.50;;;3.30;;
2658;SDS011;1339;53.304;10.406;2022-10-17T10:10:57;5.93;;;3.30;;
2658;SDS011;1339;53.304;10.406;2022-10-17T10:13:27;5.70;;;3.07;;
2658;SDS011;1339;53.304;10.406;2022-10-17T10:15:54;4.53;;;3.10;;
2658;SDS011;1339;53.304;10.406;2022-10-17T10:18:38;2.87;;;2.57;;
2658;SDS011;1339;53.304;10.406;2022-10-17T10:21:06;3.40;;;3.10;;
2658;SDS011;1339;53.304;10.406;2022-10-17T10:23:34;5.67;;;2.60;;
2658;SDS011;1339;53.304;10.406;2022-10-17T10:26:09;5.63;;;3.30;;
2658;SDS011;1339;53.304;10.406;2022-10-17T10:28:38;5.83;;;2.80;;
2658;SDS011;1339;53.304;10.406;2022-10-17T10:31:06;3.33;;;3.03;;
2658;SDS011;1339;53.304;10.406;2022-10-17T10:33:35;3.87;;;3.57;;
2658;SDS011;1339;53.304;10.406;2022-10-17T10:36:03;3.47;;;3.17;;
2658;SDS011;1339;53.304;10.406;2022-10-17T10:38:32;3.07;;;2.87;;
2658;SDS011;1339;53.304;10.406;2022-10-17T10:41:03;4.33;;;3.30;;
2658;SDS011;1339;53.304;10.406;2022-10-17T10:43:33;6.70;;;3.53;;
2658;SDS011;1339;53.304;10.406;2022-10-17T10:46:02;5.10;;;3.17;;
2658;SDS011;1339;53.304;10.406;2022-10-17T10:48:31;3.80;;;3.50;;
2658;SDS011;1339;53.304;10.406;2022-10-17T10:51:00;5.23;;;2.90;;
2658;SDS011;1339;53.304;10.406;2022-10-17T10:53:35;3.97;;;3.60;;
2658;SDS011;1339;53.304;10.406;2022-10-17T10:56:06;3.73;;;3.03;;
2658;SDS011;1339;53.304;10.406;2022-10-17T10:58:38;6.97;;;3.60;;
2658;SDS011;1339;53.304;10.406;2022-10-17T11:01:08;3.47;;;3.17;;
2658;SDS011;1339;53.304;10.406;2022-10-17T11:03:39;3.90;;;3.00;;
2658;SDS011;1339;53.304;10.406;2022-10-17T11:06:10;3.10;;;2.80;;
2658;SDS011;1339;53.304;10.406;2022-10-17T11:08:39;3.17;;;2.90;;
2658;SDS011;1339;53.304;10.406;2022-10-17T11:11:10;4.40;;;2.93;;
2658;SDS011;1339;53.304;10.406;2022-10-17T11:13:44;4.17;;;3.67;;
2658;SDS011;1339;53.304;10.406;2022-10-17T11:16:15;4.10;;;3.10;;
2658;SDS011;1339;53.304;10.406;2022-10-17T11:18:46;2.93;;;2.73;;
2658;SDS011;1339;53.304;10.406;2022-10-17T11:21:15;3.03;;;2.83;;
2658;SDS011;1339;53.304;10.406;2022-10-17T11:23:43;4.67;;;4.27;;
2658;SDS011;1339;53.304;10.406;2022-10-17T11:26:12;3.40;;;3.20;;
2658;SDS011;1339;53.304;10.406;2022-10-17T11:28:43;3.77;;;3.33;;
2658;SDS011;1339;53.304;10.406;2022-10-17T11:31:11;3.57;;;3.07;;
2658;SDS011;1339;53.304;10.406;2022-10-17T11:33:40;3.73;;;3.30;;
2658;SDS011;1339;53.304;10.406;2022-10-17T11:36:10;3.43;;;2.63;;
2658;SDS011;1339;53.304;10.406;2022-10-17T11:38:39;7.50;;;3.10;;
2658;SDS011;1339;53.304;10.406;2022-10-17T11:41:08;4.33;;;3.47;;
2658;SDS011;1339;53.304;10.406;2022-10-17T11:43:37;3.37;;;3.10;;
2658;SDS011;1339;53.304;10.406;2022-10-17T11:46:11;3.00;;;2.73;;
2658;SDS011;1339;53.304;10.406;2022-10-17T11:48:40;7.20;;;2.93;;
2658;SDS011;1339;53.304;10.406;2022-10-17T11:51:08;3.37;;;3.10;;
2658;SDS011;1339;53.304;10.406;2022-10-17T11:53:42;6.30;;;3.67;;
2658;SDS011;1339;53.304;10.406;2022-10-17T11:56:10;3.83;;;3.23;;
2658;SDS011;1339;53.304;10.406;2022-10-17T11:58:39;3.70;;;3.40;;
2658;SDS011;1339;53.304;10.406;2022-10-17T12:01:14;3.53;;;3.23;;
2658;SDS011;1339;53.304;10.406;2022-10-17T12:03:50;4.20;;;3.80;;
2658;SDS011;1339;53.304;10.406;2022-10-17T12:06:20;4.57;;;2.97;;
2658;SDS011;1339;53.304;10.406;2022-10-17T12:08:51;3.63;;;2.63;;
2658;SDS011;1339;53.304;10.406;2022-10-17T12:11:26;5.20;;;4.70;;
2658;SDS011;1339;53.304;10.406;2022-10-17T12:13:58;3.43;;;3.13;;
2658;SDS011;1339;53.304;10.406;2022-10-17T12:16:37;5.60;;;3.77;;
2658;SDS011;1339;53.304;10.406;2022-10-17T12:19:18;10.57;;;7.73;;
2658;SDS011;1339;53.304;10.406;2022-10-17T12:21:53;7.07;;;5.70;;
2658;SDS011;1339;53.304;10.406;2022-10-17T12:24:24;6.17;;;4.53;;
2658;SDS011;1339;53.304;10.406;2022-10-17T12:26:53;3.60;;;3.30;;
2658;SDS011;1339;53.304;10.406;2022-10-17T12:29:23;8.10;;;3.73;;
2658;SDS011;1339;53.304;10.406;2022-10-17T12:31:53;4.57;;;3.53;;
2658;SDS011;1339;53.304;10.406;2022-10-17T12:34:33;4.33;;;3.23;;
2658;SDS011;1339;53.304;10.406;2022-10-17T12:37:01;5.33;;;3.67;;
2658;SDS011;1339;53.304;10.406;2022-10-17T12:45:15;3.90;;;3.50;;
2658;SDS011;1339;53.304;10.406;2022-10-17T12:47:59;3.60;;;3.27;;
2658;SDS011;1339;53.304;10.406;2022-10-17T12:53:14;5.40;;;3.67;;
2658;SDS011;1339;53.304;10.406;2022-10-17T12:55:42;4.30;;;3.70;;
2658;SDS011;1339;53.304;10.406;2022-10-17T12:58:11;4.03;;;3.63;;
2658;SDS011;1339;53.304;10.406;2022-10-17T13:00:41;4.63;;;3.87;;
2658;SDS011;1339;53.304;10.406;2022-10-17T13:03:11;3.67;;;3.43;;
2658;SDS011;1339;53.304;10.406;2022-10-17T13:05:41;4.10;;;3.70;;
2658;SDS011;1339;53.304;10.406;2022-10-17T13:08:14;5.13;;;3.90;;
2658;SDS011;1339;53.304;10.406;2022-10-17T13:10:43;4.17;;;3.63;;
2658;SDS011;1339;53.304;10.406;2022-10-17T13:13:13;5.90;;;4.10;;
2658;SDS011;1339;53.304;10.406;2022-10-17T13:15:44;6.30;;;3.73;;
2658;SDS011;1339;53.304;10.406;2022-10-17T13:18:16;4.83;;;3.80;;
2658;SDS011;1339;53.304;10.406;2022-10-17T13:20:52;4.13;;;3.83;;
2658;SDS011;1339;53.304;10.406;2022-10-17T13:23:23;4.70;;;4.17;;
2658;SDS011;1339;53.304;10.406;2022-10-17T13:26:00;3.97;;;3.40;;
2658;SDS011;1339;53.304;10.406;2022-10-17T13:28:28;4.57;;;4.17;;
2658;SDS011;1339;53.304;10.406;2022-10-17T13:30:55;5.10;;;4.53;;
2658;SDS011;1339;53.304;10.406;2022-10-17T13:33:32;4.50;;;4.10;;
2658;SDS011;1339;53.304;10.406;2022-10-17T13:35:59;4.63;;;4.23;;
2658;SDS011;1339;53.304;10.406;2022-10-17T13:38:28;6.83;;;6.03;;
2658;SDS011;1339;53.304;10.406;2022-10-17T13:40:56;6.90;;;5.53;;
2658;SDS011;1339;53.304;10.406;2022-10-17T13:43:24;6.77;;;5.23;;
2658;SDS011;1339;53.304;10.406;2022-10-17T13:45:52;6.00;;;5.43;;
2658;SDS011;1339;53.304;10.406;2022-10-17T13:48:20;6.63;;;5.20;;
2658;SDS011;1339;53.304;10.406;2022-10-17T13:50:49;7.23;;;5.53;;
2658;SDS011;1339;53.304;10.406;2022-10-17T13:53:19;6.50;;;5.27;;
2658;SDS011;1339;53.304;10.406;2022-10-17T13:55:50;6.83;;;5.47;;
2658;SDS011;1339;53.304;10.406;2022-10-17T13:58:17;5.83;;;4.77;;
2658;SDS011;1339;53.304;10.406;2022-10-17T14:00:44;5.50;;;5.10;;
2658;SDS011;1339;53.304;10.406;2022-10-17T14:03:13;6.60;;;5.20;;
2658;SDS011;1339;53.304;10.406;2022-10-17T14:08:23;9.43;;;4.90;;
2658;SDS011;1339;53.304;10.406;2022-10-17T14:10:50;9.60;;;5.07;;
2658;SDS011;1339;53.304;10.406;2022-10-17T14:13:18;5.90;;;5.20;;
2658;SDS011;1339;53.304;10.406;2022-10-17T14:15:47;6.00;;;5.40;;
2658;SDS011;1339;53.304;10.406;2022-10-17T14:18:16;6.90;;;6.40;;
2658;SDS011;1339;53.304;10.406;2022-10-17T14:20:44;6.70;;;6.03;;
2658;SDS011;1339;53.304;10.406;2022-10-17T14:23:30;7.40;;;6.30;;
2658;SDS011;1339;53.304;10.406;2022-10-17T14:26:08;7.50;;;6.80;;
2658;SDS011;1339;53.304;10.406;2022-10-17T14:28:36;7.37;;;6.63;;
2658;SDS011;1339;53.304;10.406;2022-10-17T14:31:20;6.50;;;5.93;;
2658;SDS011;1339;53.304;10.406;2022-10-17T14:33:49;5.87;;;5.33;;
2658;SDS011;1339;53.304;10.406;2022-10-17T14:36:16;9.53;;;8.17;;
2658;SDS011;1339;53.304;10.406;2022-10-17T14:38:46;8.03;;;7.33;;
2658;SDS011;1339;53.304;10.406;2022-10-17T14:41:14;8.23;;;7.53;;
2658;SDS011;1339;53.304;10.406;2022-10-17T14:43:45;8.27;;;7.50;;
2658;SDS011;1339;53.304;10.406;2022-10-17T14:46:18;7.27;;;6.70;;
2658;SDS011;1339;53.304;10.406;2022-10-17T14:48:49;7.53;;;6.93;;
2658;SDS011;1339;53.304;10.406;2022-10-17T14:51:17;8.30;;;7.50;;
2658;SDS011;1339;53.304;10.406;2022-10-17T14:53:57;8.63;;;7.90;;
2658;SDS011;1339;53.304;10.406;2022-10-17T14:56:25;7.63;;;6.93;;
2658;SDS011;1339;53.304;10.406;2022-10-17T14:58:53;9.70;;;7.33;;
2658;SDS011;1339;53.304;10.406;2022-10-17T15:01:21;7.60;;;6.90;;
2658;SDS011;1339;53.304;10.406;2022-10-17T15:03:48;8.90;;;8.10;;
2658;SDS011;1339;53.304;10.406;2022-10-17T15:06:16;10.53;;;7.57;;
2658;SDS011;1339;53.304;10.406;2022-10-17T15:08:44;8.60;;;7.80;;
2658;SDS011;1339;53.304;10.406;2022-10-17T15:11:12;9.20;;;8.40;;
2658;SDS011;1339;53.304;10.406;2022-10-17T15:13:39;9.20;;;8.40;;
2658;SDS011;1339;53.304;10.406;2022-10-17T15:16:09;8.40;;;7.53;;
2658;SDS011;1339;53.304;10.406;2022-10-17T15:18:39;7.53;;;7.03;;
2658;SDS011;1339;53.304;10.406;2022-10-17T15:21:08;8.13;;;7.53;;
2658;SDS011;1339;53.304;10.406;2022-10-17T15:23:37;10.50;;;7.87;;